Time,TemperatureF,DewpointF,PressureIn,WindDirection,WindDirectionDegrees,WindSpeedMPH,WindSpeedGustMPH,Humidity,HourlyPrecipIn,Conditions,Clouds,dailyrainin,SoftwareType,DateUTC
2013-03-31 00:00:00,35.7,33.3,29.74,SW,229,0.0,4.0,91,0.00,,---,0.09,VWS V14.01,2013-03-31 04:00:00,
2013-03-31 00:05:00,35.7,33.3,29.73,SW,229,0.0,1.0,91,0.00,,---,0.00,VWS V14.01,2013-03-31 04:05:00,
2013-03-31 00:10:00,35.7,33.3,29.73,SW,229,0.0,1.0,91,0.00,,---,0.00,VWS V14.01,2013-03-31 04:10:00,
2013-03-31 00:15:00,35.6,33.2,29.73,SW,229,0.0,1.0,91,0.00,,---,0.00,VWS V14.01,2013-03-31 04:15:00,
2013-03-31 00:20:00,35.5,33.1,29.73,SW,229,0.0,2.0,91,0.00,,---,0.00,VWS V14.01,2013-03-31 04:20:00,
2013-03-31 00:25:00,35.4,33.0,29.72,SW,229,0.0,2.0,91,0.00,,---,0.00,VWS V14.01,2013-03-31 04:25:00,
2013-03-31 00:30:00,35.4,33.0,29.72,SW,229,1.0,2.0,91,0.00,,---,0.00,VWS V14.01,2013-03-31 04:30:00,
2013-03-31 00:35:00,35.3,32.9,29.72,SW,229,0.0,2.0,91,0.00,,---,0.00,VWS V14.01,2013-03-31 04:35:00,
2013-03-31 00:40:00,35.3,32.9,29.72,SW,229,0.0,2.0,91,0.00,,---,0.00,VWS V14.01,2013-03-31 04:40:00,
2013-03-31 00:45:00,35.2,32.8,29.72,SW,229,2.0,2.0,91,0.00,,---,0.00,VWS V14.01,2013-03-31 04:45:00,
2013-03-31 00:50:00,35.0,32.6,29.71,SW,229,1.0,2.0,91,0.00,,---,0.00,VWS V14.01,2013-03-31 04:50:00,
2013-03-31 00:55:00,35.0,32.9,29.71,SW,229,0.0,3.0,92,0.00,,---,0.00,VWS V14.01,2013-03-31 04:55:00,
2013-03-31 01:00:00,35.0,32.9,29.71,SW,229,0.0,3.0,92,0.00,,---,0.00,VWS V14.01,2013-03-31 05:00:00,
2013-03-31 01:05:00,34.9,32.8,29.71,SW,229,2.0,3.0,92,0.00,,---,0.00,VWS V14.01,2013-03-31 05:05:00,
2013-03-31 01:10:00,34.9,32.8,29.71,SW,229,0.0,3.0,92,0.00,,---,0.00,VWS V14.01,2013-03-31 05:10:00,
2013-03-31 01:15:00,34.9,32.8,29.71,SW,229,0.0,3.0,92,0.00,,---,0.00,VWS V14.01,2013-03-31 05:15:00,
2013-03-31 01:20:00,34.9,32.8,29.71,SW,229,2.0,3.0,92,0.00,,---,0.00,VWS V14.01,2013-03-31 05:20:00,
2013-03-31 01:25:00,34.8,32.7,29.71,SW,229,2.0,3.0,92,0.00,,---,0.00,VWS V14.01,2013-03-31 05:25:00,
2013-03-31 01:30:00,34.7,32.6,29.70,SW,229,1.0,3.0,92,0.00,,---,0.00,VWS V14.01,2013-03-31 05:30:00,
2013-03-31 01:35:00,34.7,32.6,29.70,SW,229,2.0,3.0,92,0.00,,---,0.00,VWS V14.01,2013-03-31 05:35:00,
2013-03-31 01:40:00,34.7,32.9,29.69,SW,229,1.0,4.0,93,0.00,,---,0.00,VWS V14.01,2013-03-31 05:40:00,
2013-03-31 01:45:00,34.7,32.9,29.69,SW,229,1.0,4.0,93,0.00,,---,0.00,VWS V14.01,2013-03-31 05:45:00,
2013-03-31 01:50:00,34.7,32.6,29.69,SW,229,0.0,4.0,92,0.00,,---,0.00,VWS V14.01,2013-03-31 05:50:00,
2013-03-31 01:55:00,34.6,32.5,29.69,SW,229,2.0,4.0,92,0.00,,---,0.00,VWS V14.01,2013-03-31 05:55:00,
2013-03-31 02:00:00,34.5,32.4,29.69,SW,229,2.0,4.0,92,0.00,,---,0.00,VWS V14.01,2013-03-31 06:00:00,
2013-03-31 02:05:00,34.4,32.3,29.69,SW,229,2.0,3.0,92,0.00,,---,0.00,VWS V14.01,2013-03-31 06:05:00,
2013-03-31 02:10:00,34.4,32.3,29.68,SW,229,2.0,4.0,92,0.00,,---,0.00,VWS V14.01,2013-03-31 06:10:00,
2013-03-31 02:15:00,34.3,32.2,29.68,SW,229,1.0,4.0,92,0.00,,---,0.00,VWS V14.01,2013-03-31 06:15:00,
2013-03-31 02:20:00,34.1,32.3,29.68,SW,229,2.0,4.0,93,0.00,,---,0.00,VWS V14.01,2013-03-31 06:20:00,
2013-03-31 02:25:00,34.0,31.9,29.68,SW,229,2.0,4.0,92,0.00,,---,0.00,VWS V14.01,2013-03-31 06:25:00,
2013-03-31 02:30:00,33.8,32.0,29.68,SW,229,0.0,4.0,93,0.00,,---,0.00,VWS V14.01,2013-03-31 06:30:00,
2013-03-31 02:35:00,33.7,31.9,29.67,SW,229,0.0,4.0,93,0.00,,---,0.00,VWS V14.01,2013-03-31 06:35:00,
2013-03-31 02:40:00,33.5,31.4,29.68,SW,229,1.0,4.0,92,0.00,,---,0.00,VWS V14.01,2013-03-31 06:40:00,
2013-03-31 02:45:00,33.4,31.6,29.67,SW,229,0.0,4.0,93,0.00,,---,0.00,VWS V14.01,2013-03-31 06:45:00,
2013-03-31 02:50:00,33.3,31.5,29.67,SW,229,0.0,4.0,93,0.00,,---,0.00,VWS V14.01,2013-03-31 06:50:00,
2013-03-31 02:55:00,33.3,31.5,29.67,SW,229,0.0,4.0,93,0.00,,---,0.00,VWS V14.01,2013-03-31 06:55:00,
2013-03-31 03:00:00,33.2,31.4,29.67,SW,229,0.0,4.0,93,0.00,,---,0.00,VWS V14.01,2013-03-31 07:00:00,
2013-03-31 03:05:00,33.1,31.3,29.67,SW,229,3.0,4.0,93,0.00,,---,0.00,VWS V14.01,2013-03-31 07:05:00,
2013-03-31 03:10:00,33.2,31.4,29.67,SW,229,3.0,4.0,93,0.00,,---,0.00,VWS V14.01,2013-03-31 07:10:00,
2013-03-31 03:15:00,33.2,31.4,29.66,SW,229,3.0,4.0,93,0.00,,---,0.00,VWS V14.01,2013-03-31 07:15:00,
2013-03-31 03:20:00,33.2,31.4,29.66,SW,229,3.0,4.0,93,0.00,,---,0.00,VWS V14.01,2013-03-31 07:20:00,
2013-03-31 03:25:00,33.2,31.4,29.66,SW,229,3.0,4.0,93,0.00,,---,0.00,VWS V14.01,2013-03-31 07:25:00,
2013-03-31 03:30:00,33.1,31.3,29.65,SW,229,1.0,4.0,93,0.00,,---,0.00,VWS V14.01,2013-03-31 07:30:00,
2013-03-31 03:35:00,33.1,31.3,29.65,SW,229,0.0,4.0,93,0.00,,---,0.00,VWS V14.01,2013-03-31 07:35:00,
2013-03-31 03:40:00,33.1,31.3,29.65,SW,229,3.0,4.0,93,0.00,,---,0.00,VWS V14.01,2013-03-31 07:40:00,
2013-03-31 03:45:00,33.3,31.5,29.65,SW,229,4.0,4.0,93,0.00,,---,0.00,VWS V14.01,2013-03-31 07:45:00,
2013-03-31 03:50:00,33.3,31.5,29.65,SW,229,1.0,4.0,93,0.00,,---,0.00,VWS V14.01,2013-03-31 07:50:00,
2013-03-31 03:55:00,33.4,31.6,29.65,SW,229,2.0,4.0,93,0.00,,---,0.00,VWS V14.01,2013-03-31 07:55:00,
2013-03-31 04:00:00,33.5,31.7,29.65,SW,229,3.0,5.0,93,0.00,,---,0.00,VWS V14.01,2013-03-31 08:00:00,
2013-03-31 04:05:00,33.5,31.7,29.64,SW,229,2.0,5.0,93,0.00,,---,0.00,VWS V14.01,2013-03-31 08:05:00,
2013-03-31 04:10:00,33.4,31.6,29.64,SW,229,2.0,5.0,93,0.00,,---,0.00,VWS V14.01,2013-03-31 08:10:00,
2013-03-31 04:15:00,33.5,31.7,29.64,SW,229,4.0,5.0,93,0.00,,---,0.00,VWS V14.01,2013-03-31 08:15:00,
2013-03-31 04:20:00,33.6,31.8,29.63,SW,229,4.0,5.0,93,0.00,,---,0.00,VWS V14.01,2013-03-31 08:20:00,
2013-03-31 04:25:00,33.8,32.0,29.63,SW,229,2.0,5.0,93,0.00,,---,0.00,VWS V14.01,2013-03-31 08:25:00,
2013-03-31 04:30:00,33.9,32.1,29.63,SW,229,1.0,5.0,93,0.00,,---,0.00,VWS V14.01,2013-03-31 08:30:00,
2013-03-31 04:35:00,34.0,32.2,29.63,SW,229,3.0,6.0,93,0.00,,---,0.00,VWS V14.01,2013-03-31 08:35:00,
2013-03-31 04:40:00,34.0,32.2,29.62,SW,229,3.0,6.0,93,0.00,,---,0.00,VWS V14.01,2013-03-31 08:40:00,
2013-03-31 04:45:00,34.0,32.2,29.63,SW,229,6.0,6.0,93,0.00,,---,0.00,VWS V14.01,2013-03-31 08:45:00,
2013-03-31 04:50:00,34.1,32.3,29.63,SW,229,3.0,6.0,93,0.00,,---,0.00,VWS V14.01,2013-03-31 08:50:00,
2013-03-31 04:55:00,34.2,32.4,29.62,SW,229,3.0,6.0,93,0.00,,---,0.00,VWS V14.01,2013-03-31 08:55:00,
2013-03-31 05:00:00,34.4,32.6,29.62,SW,229,3.0,6.0,93,0.00,,---,0.00,VWS V14.01,2013-03-31 09:00:00,
2013-03-31 05:05:00,34.4,32.3,29.62,SW,229,3.0,6.0,92,0.00,,---,0.00,VWS V14.01,2013-03-31 09:05:00,
2013-03-31 05:10:00,34.4,32.3,29.62,SW,229,3.0,6.0,92,0.00,,---,0.00,VWS V14.01,2013-03-31 09:10:00,
2013-03-31 05:15:00,34.4,32.3,29.61,SW,229,3.0,6.0,92,0.00,,---,0.00,VWS V14.01,2013-03-31 09:15:00,
2013-03-31 05:20:00,34.4,32.3,29.61,SW,229,2.0,6.0,92,0.00,,---,0.00,VWS V14.01,2013-03-31 09:20:00,
2013-03-31 05:25:00,34.5,32.4,29.61,SW,229,2.0,7.0,92,0.00,,---,0.00,VWS V14.01,2013-03-31 09:25:00,
2013-03-31 05:30:00,34.4,32.3,29.60,SW,229,2.0,7.0,92,0.00,,---,0.00,VWS V14.01,2013-03-31 09:30:00,
2013-03-31 05:35:00,34.4,32.3,29.60,SW,229,4.0,7.0,92,0.00,,---,0.00,VWS V14.01,2013-03-31 09:35:00,
2013-03-31 05:40:00,34.4,32.3,29.60,SW,229,4.0,7.0,92,0.00,,---,0.00,VWS V14.01,2013-03-31 09:40:00,
2013-03-31 05:45:00,34.5,32.2,29.60,SW,229,3.0,7.0,91,0.00,,---,0.00,VWS V14.01,2013-03-31 09:45:00,
2013-03-31 05:50:00,34.5,32.2,29.60,SW,229,3.0,7.0,91,0.00,,---,0.00,VWS V14.01,2013-03-31 09:50:00,
2013-03-31 05:55:00,34.5,32.2,29.60,SW,229,3.0,7.0,91,0.00,,---,0.00,VWS V14.01,2013-03-31 09:55:00,
2013-03-31 06:00:00,34.4,32.0,29.60,SW,229,3.0,7.0,91,0.00,,---,0.00,VWS V14.01,2013-03-31 10:00:00,
2013-03-31 06:05:00,34.4,32.0,29.60,SW,229,2.0,5.0,91,0.00,,---,0.00,VWS V14.01,2013-03-31 10:05:00,
2013-03-31 06:10:00,34.4,32.0,29.59,SW,229,2.0,5.0,91,0.00,,---,0.00,VWS V14.01,2013-03-31 10:10:00,
2013-03-31 06:15:00,34.4,32.0,29.60,SW,229,2.0,5.0,91,0.00,,---,0.00,VWS V14.01,2013-03-31 10:15:00,
2013-03-31 06:20:00,34.4,32.0,29.59,SW,229,2.0,5.0,91,0.00,,---,0.00,VWS V14.01,2013-03-31 10:20:00,
2013-03-31 06:25:00,34.4,32.0,29.60,SW,229,3.0,5.0,91,0.00,,---,0.00,VWS V14.01,2013-03-31 10:25:00,
2013-03-31 06:30:00,34.4,32.0,29.59,SW,229,1.0,5.0,91,0.00,,---,0.00,VWS V14.01,2013-03-31 10:30:00,
2013-03-31 06:35:00,34.4,32.0,29.59,SW,229,3.0,5.0,91,0.00,,---,0.00,VWS V14.01,2013-03-31 10:35:00,
2013-03-31 06:40:00,34.4,32.0,29.58,SW,229,3.0,5.0,91,0.00,,---,0.00,VWS V14.01,2013-03-31 10:40:00,
2013-03-31 06:45:00,34.4,32.0,29.58,SW,229,2.0,5.0,91,0.00,,---,0.00,VWS V14.01,2013-03-31 10:45:00,
2013-03-31 06:50:00,34.4,32.0,29.58,SW,229,3.0,5.0,91,0.00,,---,0.00,VWS V14.01,2013-03-31 10:50:00,
2013-03-31 06:55:00,34.6,32.2,29.58,SW,229,3.0,5.0,91,0.00,,---,0.00,VWS V14.01,2013-03-31 10:55:00,
2013-03-31 07:00:00,34.7,32.3,29.58,SW,229,2.0,5.0,91,0.00,,---,0.00,VWS V14.01,2013-03-31 11:00:00,
2013-03-31 07:05:00,34.7,32.1,29.58,SW,229,2.0,5.0,90,0.00,,---,0.00,VWS V14.01,2013-03-31 11:05:00,
2013-03-31 07:10:00,34.8,32.2,29.58,SW,229,2.0,5.0,90,0.00,,---,0.00,VWS V14.01,2013-03-31 11:10:00,
2013-03-31 07:15:00,34.9,32.3,29.58,SW,229,2.0,5.0,90,0.00,,---,0.00,VWS V14.01,2013-03-31 11:15:00,
2013-03-31 07:20:00,34.9,32.3,29.58,SW,229,2.0,5.0,90,0.00,,---,0.00,VWS V14.01,2013-03-31 11:20:00,
2013-03-31 07:25:00,35.0,32.4,29.58,SW,229,3.0,5.0,90,0.00,,---,0.00,VWS V14.01,2013-03-31 11:25:00,
2013-03-31 07:30:00,35.0,32.4,29.58,SW,229,1.0,5.0,90,0.00,,---,0.00,VWS V14.01,2013-03-31 11:30:00,
2013-03-31 07:35:00,34.9,32.0,29.58,SW,229,3.0,5.0,89,0.00,,---,0.00,VWS V14.01,2013-03-31 11:35:00,
2013-03-31 07:40:00,34.8,31.9,29.58,SW,229,2.0,5.0,89,0.00,,---,0.00,VWS V14.01,2013-03-31 11:40:00,
2013-03-31 07:45:00,34.8,31.9,29.58,SW,229,2.0,5.0,89,0.00,,---,0.00,VWS V14.01,2013-03-31 11:45:00,
2013-03-31 07:50:00,34.7,31.8,29.58,SW,229,2.0,5.0,89,0.00,,---,0.00,VWS V14.01,2013-03-31 11:50:00,
2013-03-31 07:55:00,34.7,31.8,29.58,SW,229,2.0,5.0,89,0.00,,---,0.00,VWS V14.01,2013-03-31 11:55:00,
2013-03-31 08:00:00,34.8,31.9,29.58,SW,229,2.0,5.0,89,0.00,,---,0.00,VWS V14.01,2013-03-31 12:00:00,
2013-03-31 08:05:00,34.9,32.0,29.57,SW,229,2.0,4.0,89,0.00,,---,0.00,VWS V14.01,2013-03-31 12:05:00,
2013-03-31 08:10:00,35.0,32.1,29.57,SW,229,1.0,4.0,89,0.00,,---,0.00,VWS V14.01,2013-03-31 12:10:00,
2013-03-31 08:15:00,35.1,32.2,29.58,SW,229,3.0,4.0,89,0.00,,---,0.00,VWS V14.01,2013-03-31 12:15:00,
2013-03-31 08:20:00,35.2,32.0,29.57,SW,229,2.0,4.0,88,0.00,,---,0.00,VWS V14.01,2013-03-31 12:20:00,
2013-03-31 08:25:00,35.4,32.2,29.57,SW,229,3.0,4.0,88,0.00,,---,0.00,VWS V14.01,2013-03-31 12:25:00,
2013-03-31 08:30:00,35.5,32.0,29.57,SW,229,2.0,4.0,87,0.00,,---,0.00,VWS V14.01,2013-03-31 12:30:00,
2013-03-31 08:35:00,35.5,32.0,29.57,SW,229,2.0,4.0,87,0.00,,---,0.00,VWS V14.01,2013-03-31 12:35:00,
2013-03-31 08:40:00,35.6,31.8,29.57,SW,229,1.0,4.0,86,0.00,,---,0.00,VWS V14.01,2013-03-31 12:40:00,
2013-03-31 08:45:00,35.7,31.9,29.57,SW,229,0.0,4.0,86,0.00,,---,0.00,VWS V14.01,2013-03-31 12:45:00,
2013-03-31 08:50:00,35.7,31.9,29.57,SW,229,2.0,4.0,86,0.00,,---,0.00,VWS V14.01,2013-03-31 12:50:00,
2013-03-31 08:55:00,35.7,31.9,29.57,SW,229,2.0,4.0,86,0.00,,---,0.00,VWS V14.01,2013-03-31 12:55:00,
2013-03-31 09:00:00,35.8,32.0,29.57,SW,229,1.0,4.0,86,0.00,,---,0.00,VWS V14.01,2013-03-31 13:00:00,
2013-03-31 09:05:00,35.9,32.1,29.57,SW,229,1.0,4.0,86,0.00,,---,0.00,VWS V14.01,2013-03-31 13:05:00,
2013-03-31 09:10:00,36.1,32.0,29.57,SW,229,2.0,4.0,85,0.00,,---,0.00,VWS V14.01,2013-03-31 13:10:00,
2013-03-31 09:15:00,36.4,32.0,29.56,SW,229,2.0,5.0,84,0.00,,---,0.00,VWS V14.01,2013-03-31 13:15:00,
2013-03-31 09:20:00,36.6,31.9,29.57,SW,229,1.0,5.0,83,0.00,,---,0.00,VWS V14.01,2013-03-31 13:20:00,
2013-03-31 09:25:00,36.9,32.2,29.56,SW,229,2.0,5.0,83,0.00,,---,0.00,VWS V14.01,2013-03-31 13:25:00,
2013-03-31 09:30:00,37.0,32.0,29.56,SW,229,1.0,5.0,82,0.00,,---,0.00,VWS V14.01,2013-03-31 13:30:00,
2013-03-31 09:34:00,37.3,32.0,29.56,SW,229,0.0,5.0,81,0.00,,---,0.00,VWS V14.01,2013-03-31 13:34:00,
2013-03-31 09:39:00,37.5,31.9,29.56,SW,229,3.0,5.0,80,0.00,,---,0.00,VWS V14.01,2013-03-31 13:39:00,
2013-03-31 09:44:00,37.7,32.1,29.56,SW,229,1.0,5.0,80,0.00,,---,0.00,VWS V14.01,2013-03-31 13:44:00,
2013-03-31 09:50:00,37.8,31.9,29.56,SW,227,1.0,6.0,79,0.00,,---,0.00,VWS V14.01,2013-03-31 13:50:00,
2013-03-31 09:55:00,37.9,31.7,29.56,SW,229,2.0,6.0,78,0.00,,---,0.00,VWS V14.01,2013-03-31 13:55:00,
2013-03-31 10:00:00,38.0,31.4,29.56,SW,229,0.0,6.0,77,0.00,,---,0.00,VWS V14.01,2013-03-31 14:00:00,
2013-03-31 10:05:00,38.0,31.4,29.56,SW,229,2.0,4.0,77,0.00,,---,0.00,VWS V14.01,2013-03-31 14:05:00,
2013-03-31 10:10:00,38.1,31.5,29.56,SW,230,3.0,5.0,77,0.00,,---,0.00,VWS V14.01,2013-03-31 14:10:00,
2013-03-31 10:15:00,38.2,31.3,29.56,SW,231,1.0,6.0,76,0.00,,---,0.00,VWS V14.01,2013-03-31 14:15:00,
2013-03-31 10:20:00,38.2,30.7,29.56,WSW,238,3.0,7.0,74,0.00,,---,0.00,VWS V14.01,2013-03-31 14:20:00,
2013-03-31 10:25:00,38.3,30.4,29.56,WSW,238,0.0,7.0,73,0.00,,---,0.00,VWS V14.01,2013-03-31 14:25:00,
2013-03-31 10:30:00,38.5,30.6,29.56,West,278,4.0,7.0,73,0.00,,---,0.00,VWS V14.01,2013-03-31 14:30:00,
2013-03-31 10:35:00,38.7,30.1,29.56,NW,305,3.0,9.0,71,0.00,,---,0.00,VWS V14.01,2013-03-31 14:35:00,
2013-03-31 10:40:00,38.9,30.3,29.55,North,360,4.0,9.0,71,0.00,,---,0.00,VWS V14.01,2013-03-31 14:40:00,
2013-03-31 10:45:00,38.9,29.6,29.55,North,360,5.0,12.0,69,0.00,,---,0.00,VWS V14.01,2013-03-31 14:45:00,
2013-03-31 10:50:00,38.9,30.0,29.56,North,360,2.0,12.0,70,0.00,,---,0.00,VWS V14.01,2013-03-31 14:50:00,
2013-03-31 10:55:00,38.9,29.6,29.55,WNW,301,4.0,12.0,69,0.00,,---,0.00,VWS V14.01,2013-03-31 14:55:00,
2013-03-31 11:00:00,39.0,30.1,29.55,North,360,4.0,12.0,70,0.00,,---,0.00,VWS V14.01,2013-03-31 15:00:00,
2013-03-31 11:05:00,39.2,30.6,29.55,North,360,1.0,12.0,71,0.00,,---,0.00,VWS V14.01,2013-03-31 15:05:00,
2013-03-31 11:10:00,39.3,30.4,29.55,North,360,0.0,12.0,70,0.00,,---,0.00,VWS V14.01,2013-03-31 15:10:00,
2013-03-31 11:15:00,39.4,30.4,29.55,North,360,3.0,12.0,70,0.00,,---,0.00,VWS V14.01,2013-03-31 15:15:00,
2013-03-31 11:20:00,39.6,30.3,29.55,North,360,0.0,12.0,69,0.00,,---,0.00,VWS V14.01,2013-03-31 15:20:00,
2013-03-31 11:25:00,39.9,30.6,29.54,North,360,1.0,12.0,69,0.00,,---,0.00,VWS V14.01,2013-03-31 15:25:00,
2013-03-31 11:30:00,40.0,31.0,29.54,North,360,4.0,12.0,70,0.00,,---,0.00,VWS V14.01,2013-03-31 15:30:00,
2013-03-31 11:35:00,40.3,30.6,29.54,North,360,3.0,12.0,68,0.00,,---,0.00,VWS V14.01,2013-03-31 15:35:00,
2013-03-31 11:40:00,40.5,31.1,29.54,North,360,0.0,13.0,69,0.00,,---,0.00,VWS V14.01,2013-03-31 15:40:00,
2013-03-31 11:45:00,40.7,31.0,29.54,North,360,9.0,13.0,68,0.00,,---,0.00,VWS V14.01,2013-03-31 15:45:00,
2013-03-31 11:50:00,40.4,30.7,29.54,North,360,3.0,13.0,68,0.00,,---,0.00,VWS V14.01,2013-03-31 15:50:00,
2013-03-31 11:55:00,40.2,30.9,29.54,North,360,4.0,13.0,69,0.00,,---,0.00,VWS V14.01,2013-03-31 15:55:00,
2013-03-31 12:00:00,40.0,30.7,29.54,North,360,5.0,15.0,69,0.00,,---,0.00,VWS V14.01,2013-03-31 16:00:00,
2013-03-31 12:05:00,39.4,30.8,29.55,North,360,8.0,15.0,71,0.00,,---,0.00,VWS V14.01,2013-03-31 16:05:00,
2013-03-31 12:10:00,38.7,31.1,29.55,North,360,7.0,15.0,74,0.00,,---,0.00,VWS V14.01,2013-03-31 16:10:00,
2013-03-31 12:15:00,38.3,31.1,29.55,North,360,5.0,15.0,75,0.00,,---,0.00,VWS V14.01,2013-03-31 16:15:00,
2013-03-31 12:20:00,37.7,30.5,29.55,North,360,4.0,15.0,75,0.00,,---,0.00,VWS V14.01,2013-03-31 16:20:00,
2013-03-31 12:24:00,37.4,30.5,29.55,North,360,4.0,15.0,76,0.00,,---,0.00,VWS V14.01,2013-03-31 16:24:00,
2013-03-31 12:29:00,37.5,31.0,29.55,North,360,7.0,15.0,77,0.00,,---,0.00,VWS V14.01,2013-03-31 16:29:00,
2013-03-31 12:34:00,37.7,30.5,29.56,North,360,3.0,15.0,75,0.00,,---,0.00,VWS V14.01,2013-03-31 16:34:00,
2013-03-31 12:39:00,38.1,30.2,29.55,North,360,4.0,15.0,73,0.00,,---,0.00,VWS V14.01,2013-03-31 16:39:00,
2013-03-31 12:44:00,38.2,30.3,29.56,North,360,4.0,17.0,73,0.00,,---,0.00,VWS V14.01,2013-03-31 16:44:00,
2013-03-31 12:50:00,38.3,30.1,29.55,North,360,8.0,17.0,72,0.00,,---,0.00,VWS V14.01,2013-03-31 16:50:00,
2013-03-31 12:55:00,38.5,30.3,29.55,North,360,11.0,17.0,72,0.01,,---,0.01,VWS V14.01,2013-03-31 16:55:00,
2013-03-31 13:00:00,38.4,30.2,29.55,North,360,2.0,17.0,72,0.01,,---,0.01,VWS V14.01,2013-03-31 17:00:00,
2013-03-31 13:04:00,38.4,29.8,29.55,North,360,9.0,17.0,71,0.01,,---,0.01,VWS V14.01,2013-03-31 17:04:00,
2013-03-31 13:10:00,38.2,30.0,29.55,North,360,6.0,17.0,72,0.01,,---,0.01,VWS V14.01,2013-03-31 17:10:00,
2013-03-31 13:15:00,37.8,29.6,29.56,North,360,2.0,17.0,72,0.01,,---,0.01,VWS V14.01,2013-03-31 17:15:00,
2013-03-31 13:20:00,37.7,29.8,29.55,North,360,9.0,17.0,73,0.01,,---,0.01,VWS V14.01,2013-03-31 17:20:00,
2013-03-31 13:25:00,37.6,29.4,29.55,North,360,10.0,17.0,72,0.01,,---,0.01,VWS V14.01,2013-03-31 17:25:00,
2013-03-31 13:30:00,37.6,29.7,29.55,North,360,4.0,17.0,73,0.01,,---,0.01,VWS V14.01,2013-03-31 17:30:00,
2013-03-31 13:35:00,37.6,29.7,29.55,North,360,13.0,17.0,73,0.01,,---,0.01,VWS V14.01,2013-03-31 17:35:00,
2013-03-31 13:40:00,37.9,30.0,29.55,North,360,3.0,17.0,73,0.01,,---,0.01,VWS V14.01,2013-03-31 17:40:00,
2013-03-31 13:45:00,38.1,29.9,29.55,North,360,4.0,17.0,72,0.01,,---,0.01,VWS V14.01,2013-03-31 17:45:00,
2013-03-31 13:49:00,38.2,29.3,29.55,North,360,2.0,17.0,70,0.01,,---,0.01,VWS V14.01,2013-03-31 17:49:00,
2013-03-31 13:54:00,37.8,29.9,29.55,North,360,2.0,17.0,73,0.01,,---,0.01,VWS V14.01,2013-03-31 17:54:00,
2013-03-31 13:59:00,37.5,29.3,29.55,North,360,8.0,17.0,72,0.01,,---,0.01,VWS V14.01,2013-03-31 17:59:00,
2013-03-31 14:04:00,37.7,29.2,29.55,North,360,1.0,11.0,71,0.00,,---,0.01,VWS V14.01,2013-03-31 18:04:00,
2013-03-31 14:09:00,37.7,28.1,29.55,North,360,12.0,16.0,68,0.00,,---,0.01,VWS V14.01,2013-03-31 18:09:00,
2013-03-31 14:14:00,37.5,29.0,29.55,North,360,12.0,16.0,71,0.00,,---,0.01,VWS V14.01,2013-03-31 18:14:00,
2013-03-31 14:19:00,37.4,28.5,29.55,North,360,6.0,16.0,70,0.00,,---,0.01,VWS V14.01,2013-03-31 18:19:00,
2013-03-31 14:24:00,37.2,28.3,29.55,North,360,12.0,16.0,70,0.00,,---,0.01,VWS V14.01,2013-03-31 18:24:00,
2013-03-31 14:29:00,37.0,28.5,29.56,North,360,6.0,16.0,71,0.00,,---,0.01,VWS V14.01,2013-03-31 18:29:00,
2013-03-31 14:34:00,36.6,28.4,29.56,North,360,10.0,16.0,72,0.00,,---,0.01,VWS V14.01,2013-03-31 18:34:00,
2013-03-31 14:39:00,36.3,28.5,29.56,North,360,3.0,16.0,73,0.00,,---,0.01,VWS V14.01,2013-03-31 18:39:00,
2013-03-31 14:44:00,36.0,29.2,29.56,North,360,9.0,16.0,76,0.00,,---,0.01,VWS V14.01,2013-03-31 18:44:00,
2013-03-31 14:49:00,35.4,28.9,29.56,North,360,10.0,16.0,77,0.00,,---,0.01,VWS V14.01,2013-03-31 18:49:00,
2013-03-31 14:54:00,35.9,27.8,29.56,North,360,17.0,20.0,72,0.00,,---,0.01,VWS V14.01,2013-03-31 18:54:00,
2013-03-31 14:59:00,36.7,27.1,29.56,North,360,14.0,20.0,68,0.00,,---,0.01,VWS V14.01,2013-03-31 18:59:00,
2013-03-31 15:04:00,36.9,25.9,29.57,North,360,5.0,23.0,64,0.00,,---,0.01,VWS V14.01,2013-03-31 19:04:00,
2013-03-31 15:09:00,36.5,25.9,29.57,NW,318,10.0,23.0,65,0.00,,---,0.01,VWS V14.01,2013-03-31 19:09:00,
2013-03-31 15:14:00,36.4,25.0,29.57,North,360,4.0,23.0,63,0.00,,---,0.01,VWS V14.01,2013-03-31 19:14:00,
2013-03-31 15:19:00,36.6,25.2,29.57,North,360,20.0,24.0,63,0.00,,---,0.01,VWS V14.01,2013-03-31 19:19:00,
2013-03-31 15:24:00,36.1,25.5,29.58,North,360,11.0,26.0,65,0.00,,---,0.01,VWS V14.01,2013-03-31 19:24:00,
2013-03-31 15:30:00,35.8,25.6,29.58,NW,317,13.0,26.0,66,0.00,,---,0.01,VWS V14.01,2013-03-31 19:30:00,
2013-03-31 15:35:00,35.8,25.2,29.58,North,360,4.0,26.0,65,0.00,,---,0.01,VWS V14.01,2013-03-31 19:35:00,
2013-03-31 15:40:00,36.0,25.4,29.58,North,360,4.0,26.0,65,0.00,,---,0.01,VWS V14.01,2013-03-31 19:40:00,
2013-03-31 15:45:00,36.1,25.5,29.58,North,360,4.0,26.0,65,0.00,,---,0.01,VWS V14.01,2013-03-31 19:45:00,
2013-03-31 15:50:00,36.1,25.1,29.59,North,360,19.0,26.0,64,0.00,,---,0.01,VWS V14.01,2013-03-31 19:50:00,
2013-03-31 15:55:00,35.8,25.6,29.59,North,360,4.0,26.0,66,0.00,,---,0.01,VWS V14.01,2013-03-31 19:55:00,
2013-03-31 16:00:00,35.8,25.9,29.59,North,360,10.0,26.0,67,0.00,,---,0.01,VWS V14.01,2013-03-31 20:00:00,
2013-03-31 16:05:00,35.6,26.1,29.60,North,360,22.0,22.0,68,0.00,,---,0.01,VWS V14.01,2013-03-31 20:05:00,
2013-03-31 16:10:00,34.4,27.0,29.60,North,360,17.0,32.0,74,0.00,,---,0.01,VWS V14.01,2013-03-31 20:10:00,
2013-03-31 16:14:00,33.1,26.7,29.60,North,360,22.0,32.0,77,0.00,,---,0.01,VWS V14.01,2013-03-31 20:14:00,
2013-03-31 16:19:00,32.6,26.2,29.60,North,360,6.0,32.0,77,0.00,,---,0.01,VWS V14.01,2013-03-31 20:19:00,
2013-03-31 16:24:00,33.2,25.5,29.60,North,360,3.0,32.0,73,0.00,,---,0.01,VWS V14.01,2013-03-31 20:24:00,
2013-03-31 16:29:00,33.6,25.9,29.60,North,360,14.0,32.0,73,0.00,,---,0.01,VWS V14.01,2013-03-31 20:29:00,
2013-03-31 16:34:00,33.4,26.0,29.60,North,360,16.0,32.0,74,0.00,,---,0.01,VWS V14.01,2013-03-31 20:34:00,
2013-03-31 16:39:00,33.5,27.1,29.61,North,360,7.0,32.0,77,0.00,,---,0.01,VWS V14.01,2013-03-31 20:39:00,
2013-03-31 16:44:00,32.2,27.9,29.62,North,360,16.0,32.0,84,0.00,,---,0.01,VWS V14.01,2013-03-31 20:44:00,
2013-03-31 16:49:00,31.0,27.9,29.62,North,360,12.0,32.0,88,0.00,,---,0.01,VWS V14.01,2013-03-31 20:49:00,
2013-03-31 16:54:00,29.8,27.0,29.63,North,360,21.0,32.0,89,0.00,,---,0.01,VWS V14.01,2013-03-31 20:54:00,
2013-03-31 16:59:00,29.3,26.7,29.63,WNW,282,13.0,32.0,90,0.00,,---,0.01,VWS V14.01,2013-03-31 20:59:00,
2013-03-31 17:05:00,29.4,26.8,29.63,North,360,19.0,32.0,90,0.00,,---,0.01,VWS V14.01,2013-03-31 21:05:00,
2013-03-31 17:10:00,29.7,26.3,29.64,North,360,24.0,32.0,87,0.00,,---,0.01,VWS V14.01,2013-03-31 21:10:00,
2013-03-31 17:15:00,29.7,26.0,29.64,North,360,11.0,32.0,86,0.00,,---,0.01,VWS V14.01,2013-03-31 21:15:00,
2013-03-31 17:19:00,29.5,25.6,29.64,WNW,302,26.0,32.0,85,0.00,,---,0.01,VWS V14.01,2013-03-31 21:19:00,
2013-03-31 17:24:00,29.4,25.5,29.64,NW,317,17.0,32.0,85,0.00,,---,0.01,VWS V14.01,2013-03-31 21:24:00,
2013-03-31 17:30:00,29.2,25.0,29.65,WNW,291,14.0,32.0,84,0.00,,---,0.01,VWS V14.01,2013-03-31 21:30:00,
2013-03-31 17:35:00,29.1,24.6,29.65,North,360,14.0,32.0,83,0.00,,---,0.01,VWS V14.01,2013-03-31 21:35:00,
2013-03-31 17:39:00,29.0,24.5,29.65,North,360,15.0,32.0,83,0.00,,---,0.01,VWS V14.01,2013-03-31 21:39:00,
2013-03-31 17:44:00,28.8,24.3,29.66,North,360,15.0,32.0,83,0.00,,---,0.01,VWS V14.01,2013-03-31 21:44:00,
2013-03-31 17:49:00,28.8,24.3,29.66,North,360,22.0,32.0,83,0.00,,---,0.01,VWS V14.01,2013-03-31 21:49:00,
2013-03-31 17:54:00,28.8,24.3,29.66,North,360,14.0,32.0,83,0.00,,---,0.01,VWS V14.01,2013-03-31 21:54:00,
2013-03-31 18:00:00,28.4,23.3,29.66,NW,315,25.0,33.0,81,0.00,,---,0.01,VWS V14.01,2013-03-31 22:00:00,
2013-03-31 18:05:00,28.2,23.4,29.67,North,360,12.0,29.0,82,0.00,,---,0.01,VWS V14.01,2013-03-31 22:05:00,
2013-03-31 18:10:00,28.1,23.6,29.67,North,360,19.0,29.0,83,0.00,,---,0.01,VWS V14.01,2013-03-31 22:10:00,
2013-03-31 18:15:00,28.2,23.4,29.67,North,360,11.0,29.0,82,0.00,,---,0.01,VWS V14.01,2013-03-31 22:15:00,
2013-03-31 18:20:00,28.0,22.9,29.67,North,360,11.0,31.0,81,0.00,,---,0.01,VWS V14.01,2013-03-31 22:20:00,
2013-03-31 18:25:00,27.9,23.1,29.68,North,360,18.0,31.0,82,0.00,,---,0.01,VWS V14.01,2013-03-31 22:25:00,
2013-03-31 18:30:00,27.8,22.7,29.68,North,360,11.0,31.0,81,0.00,,---,0.01,VWS V14.01,2013-03-31 22:30:00,
2013-03-31 18:35:00,27.8,22.7,29.69,North,360,14.0,31.0,81,0.00,,---,0.01,VWS V14.01,2013-03-31 22:35:00,
2013-03-31 18:40:00,27.8,23.0,29.69,North,360,14.0,31.0,82,0.00,,---,0.01,VWS V14.01,2013-03-31 22:40:00,
2013-03-31 18:44:00,27.5,22.7,29.69,North,360,17.0,31.0,82,0.00,,---,0.01,VWS V14.01,2013-03-31 22:44:00,
2013-03-31 18:49:00,27.4,22.4,29.70,North,360,10.0,31.0,81,0.00,,---,0.01,VWS V14.01,2013-03-31 22:49:00,
2013-03-31 18:54:00,27.4,21.8,29.70,North,360,16.0,31.0,79,0.00,,---,0.01,VWS V14.01,2013-03-31 22:54:00,
2013-03-31 18:59:00,27.4,22.4,29.70,North,360,12.0,31.0,81,0.00,,---,0.01,VWS V14.01,2013-03-31 22:59:00,
2013-03-31 19:04:00,27.3,22.2,29.71,North,360,15.0,31.0,81,0.00,,---,0.01,VWS V14.01,2013-03-31 23:04:00,
2013-03-31 19:09:00,27.1,22.4,29.71,North,360,12.0,31.0,82,0.00,,---,0.01,VWS V14.01,2013-03-31 23:09:00,
2013-03-31 19:14:00,26.6,22.7,29.71,West,279,13.0,31.0,85,0.00,,---,0.01,VWS V14.01,2013-03-31 23:14:00,
2013-03-31 19:19:00,26.5,22.6,29.71,North,360,19.0,31.0,85,0.00,,---,0.01,VWS V14.01,2013-03-31 23:19:00,
2013-03-31 19:24:00,26.6,23.0,29.72,SSW,210,12.0,31.0,86,0.00,,---,0.01,VWS V14.01,2013-03-31 23:24:00,
2013-03-31 19:29:00,26.3,21.6,29.72,North,360,15.0,31.0,82,0.00,,---,0.01,VWS V14.01,2013-03-31 23:29:00,
2013-03-31 19:34:00,26.2,21.5,29.73,North,360,15.0,31.0,82,0.00,,---,0.01,VWS V14.01,2013-03-31 23:34:00,
2013-03-31 19:39:00,26.1,20.8,29.73,North,360,12.0,31.0,80,0.00,,---,0.01,VWS V14.01,2013-03-31 23:39:00,
2013-03-31 19:44:00,26.0,21.8,29.73,North,360,11.0,31.0,84,0.00,,---,0.01,VWS V14.01,2013-03-31 23:44:00,
2013-03-31 19:49:00,25.9,22.3,29.73,North,360,19.0,34.0,86,0.00,,---,0.01,VWS V14.01,2013-03-31 23:49:00,
2013-03-31 19:54:00,26.0,22.4,29.74,NW,316,13.0,34.0,86,0.00,,---,0.01,VWS V14.01,2013-03-31 23:54:00,
2013-03-31 19:59:00,25.7,22.1,29.74,North,360,12.0,34.0,86,0.00,,---,0.01,VWS V14.01,2013-03-31 23:59:00,
2013-03-31 20:04:00,25.6,22.0,29.74,North,360,11.0,29.0,86,0.00,,---,0.01,VWS V14.01,2013-04-01 00:04:00,
2013-03-31 20:09:00,25.6,22.0,29.74,North,360,22.0,29.0,86,0.00,,---,0.01,VWS V14.01,2013-04-01 00:09:00,
2013-03-31 20:14:00,25.6,22.5,29.74,North,360,14.0,29.0,88,0.00,,---,0.01,VWS V14.01,2013-04-01 00:14:00,
2013-03-31 20:19:00,25.1,22.3,29.74,North,360,12.0,30.0,89,0.00,,---,0.01,VWS V14.01,2013-04-01 00:19:00,
2013-03-31 20:24:00,25.1,22.3,29.75,North,360,19.0,30.0,89,0.00,,---,0.01,VWS V14.01,2013-04-01 00:24:00,
2013-03-31 20:29:00,25.2,22.4,29.75,North,360,17.0,30.0,89,0.00,,---,0.01,VWS V14.01,2013-04-01 00:29:00,
2013-03-31 20:34:00,25.4,22.4,29.75,North,360,22.0,30.0,88,0.00,,---,0.01,VWS V14.01,2013-04-01 00:34:00,
2013-03-31 20:39:00,25.6,22.0,29.75,North,360,31.0,31.0,86,0.00,,---,0.01,VWS V14.01,2013-04-01 00:39:00,
2013-03-31 20:44:00,25.9,23.9,29.76,North,360,25.0,35.0,92,0.00,,---,0.01,VWS V14.01,2013-04-01 00:44:00,
2013-03-31 20:49:00,25.5,22.2,29.76,North,360,8.0,35.0,87,0.00,,---,0.01,VWS V14.01,2013-04-01 00:49:00,
2013-03-31 20:54:00,25.3,22.2,29.76,North,360,26.0,35.0,88,0.00,,---,0.01,VWS V14.01,2013-04-01 00:54:00,
2013-03-31 20:59:00,25.4,22.4,29.76,North,360,29.0,35.0,88,0.00,,---,0.01,VWS V14.01,2013-04-01 00:59:00,
2013-03-31 21:04:00,25.1,22.3,29.77,North,360,22.0,35.0,89,0.00,,---,0.01,VWS V14.01,2013-04-01 01:04:00,
2013-03-31 21:09:00,25.3,21.7,29.77,North,360,14.0,35.0,86,0.00,,---,0.01,VWS V14.01,2013-04-01 01:09:00,
2013-03-31 21:14:00,25.6,21.7,29.77,North,360,19.0,35.0,85,0.00,,---,0.01,VWS V14.01,2013-04-01 01:14:00,
2013-03-31 21:19:00,25.7,20.7,29.77,North,360,29.0,35.0,81,0.00,,---,0.01,VWS V14.01,2013-04-01 01:19:00,
2013-03-31 21:24:00,26.0,21.0,29.77,North,360,29.0,35.0,81,0.00,,---,0.01,VWS V14.01,2013-04-01 01:24:00,
2013-03-31 21:29:00,26.2,21.5,29.77,North,360,21.0,35.0,82,0.00,,---,0.01,VWS V14.01,2013-04-01 01:29:00,
2013-03-31 21:34:00,26.2,21.8,29.78,North,360,17.0,35.0,83,0.00,,---,0.01,VWS V14.01,2013-04-01 01:34:00,
2013-03-31 21:39:00,26.2,21.8,29.78,North,360,13.0,37.0,83,0.00,,---,0.01,VWS V14.01,2013-04-01 01:39:00,
2013-03-31 21:44:00,26.1,22.8,29.78,North,360,13.0,37.0,87,0.00,,---,0.01,VWS V14.01,2013-04-01 01:44:00,
2013-03-31 21:49:00,25.6,22.5,29.78,North,360,16.0,37.0,88,0.00,,---,0.01,VWS V14.01,2013-04-01 01:49:00,
2013-03-31 21:54:00,25.6,22.8,29.78,North,360,19.0,37.0,89,0.00,,---,0.01,VWS V14.01,2013-04-01 01:54:00,
2013-03-31 21:59:00,25.7,23.2,29.78,North,360,18.0,37.0,90,0.00,,---,0.01,VWS V14.01,2013-04-01 01:59:00,
2013-03-31 22:04:00,25.2,23.0,29.79,North,360,14.0,35.0,91,0.00,,---,0.01,VWS V14.01,2013-04-01 02:04:00,
2013-03-31 22:09:00,25.2,23.0,29.80,North,360,13.0,35.0,91,0.00,,---,0.01,VWS V14.01,2013-04-01 02:09:00,
2013-03-31 22:14:00,25.3,22.8,29.80,North,360,25.0,35.0,90,0.00,,---,0.01,VWS V14.01,2013-04-01 02:14:00,
2013-03-31 22:19:00,25.4,22.6,29.80,North,360,30.0,35.0,89,0.00,,---,0.01,VWS V14.01,2013-04-01 02:19:00,
2013-03-31 22:24:00,25.6,22.3,29.80,North,360,17.0,35.0,87,0.00,,---,0.01,VWS V14.01,2013-04-01 02:24:00,
2013-03-31 22:29:00,25.6,22.0,29.80,East,87,18.0,35.0,86,0.00,,---,0.01,VWS V14.01,2013-04-01 02:29:00,
2013-03-31 22:34:00,25.8,22.5,29.80,North,360,20.0,35.0,87,0.00,,---,0.01,VWS V14.01,2013-04-01 02:34:00,
2013-03-31 22:39:00,25.4,22.1,29.80,North,360,23.0,35.0,87,0.00,,---,0.01,VWS V14.01,2013-04-01 02:39:00,
2013-03-31 22:44:00,25.3,22.0,29.81,North,360,15.0,35.0,87,0.00,,---,0.01,VWS V14.01,2013-04-01 02:44:00,
2013-03-31 22:49:00,25.3,21.4,29.81,East,80,16.0,35.0,85,0.00,,---,0.01,VWS V14.01,2013-04-01 02:49:00,
2013-03-31 22:54:00,25.3,21.1,29.81,North,360,17.0,36.0,84,0.00,,---,0.01,VWS V14.01,2013-04-01 02:54:00,
2013-03-31 22:59:00,25.3,21.7,29.81,North,360,9.0,36.0,86,0.00,,---,0.01,VWS V14.01,2013-04-01 02:59:00,
2013-03-31 23:04:00,25.2,21.0,29.81,North,360,24.0,36.0,84,0.00,,---,0.01,VWS V14.01,2013-04-01 03:04:00,
2013-03-31 23:09:00,25.1,21.2,29.82,North,360,25.0,36.0,85,0.00,,---,0.01,VWS V14.01,2013-04-01 03:09:00,
2013-03-31 23:14:00,25.0,21.4,29.82,North,360,20.0,36.0,86,0.00,,---,0.01,VWS V14.01,2013-04-01 03:14:00,
2013-03-31 23:19:00,25.2,21.0,29.82,North,360,20.0,36.0,84,0.00,,---,0.01,VWS V14.01,2013-04-01 03:19:00,
2013-03-31 23:24:00,25.2,21.0,29.82,North,360,19.0,36.0,84,0.00,,---,0.01,VWS V14.01,2013-04-01 03:24:00,
2013-03-31 23:29:00,25.0,20.6,29.82,North,360,21.0,36.0,83,0.00,,---,0.01,VWS V14.01,2013-04-01 03:29:00,
2013-03-31 23:35:00,24.9,20.8,29.83,North,360,15.0,36.0,84,0.00,,---,0.01,VWS V14.01,2013-04-01 03:35:00,
2013-03-31 23:40:00,25.1,21.0,29.82,North,360,24.0,36.0,84,0.00,,---,0.01,VWS V14.01,2013-04-01 03:40:00,
2013-03-31 23:45:00,24.7,21.4,29.83,North,360,18.0,36.0,87,0.00,,---,0.01,VWS V14.01,2013-04-01 03:45:00,
2013-03-31 23:49:00,24.7,20.8,29.83,North,360,19.0,36.0,85,0.00,,---,0.01,VWS V14.01,2013-04-01 03:49:00,
2013-03-31 23:54:00,25.0,21.1,29.83,North,360,16.0,36.0,85,0.00,,---,0.01,VWS V14.01,2013-04-01 03:54:00,
2013-03-31 23:59:00,25.0,20.0,29.82,North,360,17.0,36.0,81,0.00,,---,0.01,VWS V14.01,2013-04-01 03:59:00,